Time;durP1;ratioP1;P1;durP2;ratioP2;P2;SDS_P1;SDS_P2;PMS_P1;PMS_P2;Temp;Humidity;BMP_temperature;BMP_pressure;BME280_temperature;BME280_humidity;BME280_pressure;Samples;Min_cycle;Max_cycle;Signal;HPM_P1;HPM_P2
2022/05/04 00:01:45;;;;;;;5.20;4.70;;;10.50;99.90;;;;;;5051687;28;20242;-59
2022/05/04 00:04:11;;;;;;;7.30;5.37;;;10.50;99.90;;;;;;5042139;28;20174;-59
2022/05/04 00:06:37;;;;;;;6.50;4.90;;;10.50;99.90;;;;;;5045544;28;20226;-60
2022/05/04 00:09:03;;;;;;;6.53;5.10;;;10.50;99.90;;;;;;5049293;28;20182;-60
2022/05/04 00:11:29;;;;;;;5.10;4.60;;;10.50;99.90;;;;;;5048344;28;20166;-59
2022/05/04 00:13:54;;;;;;;5.67;5.10;;;10.50;99.90;;;;;;5044275;28;20425;-60
2022/05/04 00:16:20;;;;;;;5.17;4.73;;;10.50;99.90;;;;;;5052486;28;20226;-59
2022/05/04 00:18:46;;;;;;;6.53;5.13;;;10.50;99.90;;;;;;5052855;28;20171;-58
2022/05/04 00:21:12;;;;;;;6.30;5.57;;;10.50;99.90;;;;;;5047894;28;20640;-59
2022/05/04 00:23:37;;;;;;;6.00;5.40;;;10.50;99.90;;;;;;5033947;28;20204;-60
2022/05/04 00:26:03;;;;;;;6.53;5.17;;;10.50;99.90;;;;;;5032868;28;20459;-61
2022/05/04 00:28:29;;;;;;;9.03;5.80;;;10.50;99.90;;;;;;5038184;28;20321;-59
2022/05/04 00:30:55;;;;;;;6.10;5.10;;;10.50;99.90;;;;;;5051175;28;20171;-59
2022/05/04 00:33:20;;;;;;;6.77;5.60;;;10.50;99.90;;;;;;5049131;28;20179;-60
2022/05/04 00:35:46;;;;;;;7.90;5.20;;;10.40;99.90;;;;;;5051296;28;20234;-59
2022/05/04 00:38:11;;;;;;;5.47;4.97;;;10.40;99.90;;;;;;5049649;28;20210;-59
2022/05/04 00:40:37;;;;;;;6.97;5.43;;;10.40;99.90;;;;;;5052791;28;20546;-58
2022/05/04 00:43:03;;;;;;;5.93;5.33;;;10.30;99.90;;;;;;5043468;28;20199;-59
2022/05/04 00:45:29;;;;;;;8.20;4.80;;;10.30;99.90;;;;;;5062033;28;20743;-60
2022/05/04 00:47:54;;;;;;;6.70;5.93;;;10.30;99.90;;;;;;5051491;28;20927;-59
2022/05/04 00:50:20;;;;;;;6.37;5.77;;;10.20;99.90;;;;;;5047075;28;20180;-60
2022/05/04 00:52:49;;;;;;;8.90;6.00;;;10.20;99.90;;;;;;5050876;28;20664;-59
2022/05/04 00:55:19;;;;;;;8.23;6.10;;;10.20;99.90;;;;;;5032410;28;20445;-58
2022/05/04 01:00:30;;;;;;;10.70;6.80;;;10.10;99.90;;;;;;5047352;28;20440;-58
2022/05/04 01:02:56;;;;;;;8.67;6.83;;;10.10;99.90;;;;;;5049968;28;20461;-59
2022/05/04 01:05:22;;;;;;;9.30;7.13;;;10.00;99.90;;;;;;5051886;28;20183;-59
2022/05/04 01:07:48;;;;;;;7.67;6.23;;;10.00;99.90;;;;;;5048984;28;20490;-59
2022/05/04 01:10:15;;;;;;;7.40;6.50;;;10.00;99.90;;;;;;5047955;28;20612;-59
2022/05/04 01:12:49;;;;;;;8.17;6.40;;;9.90;99.90;;;;;;5032230;28;20247;-59
2022/05/04 01:15:15;;;;;;;11.37;7.60;;;9.90;99.90;;;;;;5049341;28;20432;-59
2022/05/04 01:17:41;;;;;;;10.27;7.07;;;9.90;99.90;;;;;;5057742;28;20552;-58
2022/05/04 01:20:08;;;;;;;14.03;9.03;;;9.90;99.90;;;;;;5048910;28;21005;-59
2022/05/04 01:22:34;;;;;;;11.40;8.70;;;9.90;99.90;;;;;;5051525;28;20222;-59
2022/05/04 01:25:00;;;;;;;11.57;7.93;;;9.80;99.90;;;;;;5050013;28;20523;-59
2022/05/04 01:27:26;;;;;;;12.70;8.13;;;9.80;99.90;;;;;;5044565;28;20426;-59
2022/05/04 01:29:52;;;;;;;13.37;8.73;;;9.80;99.90;;;;;;5050977;28;20175;-58
2022/05/04 01:32:17;;;;;;;11.53;8.57;;;9.70;99.90;;;;;;5049470;28;20775;-60
2022/05/04 01:34:43;;;;;;;15.70;8.80;;;9.70;99.90;;;;;;5050209;28;20179;-59
2022/05/04 01:37:08;;;;;;;13.50;8.60;;;9.70;99.90;;;;;;5055932;28;20191;-58
2022/05/04 01:39:35;;;;;;;12.23;8.53;;;9.70;99.90;;;;;;5066630;28;20167;-61
2022/05/04 01:42:03;;;;;;;14.57;9.30;;;9.70;99.90;;;;;;5037691;28;21897;-59
2022/05/04 01:44:33;;;;;;;13.67;9.30;;;9.70;99.90;;;;;;5064349;28;20462;-58
2022/05/04 01:47:00;;;;;;;14.97;9.13;;;9.80;99.90;;;;;;5044664;28;20446;-60
2022/05/04 01:49:26;;;;;;;13.03;8.13;;;9.80;99.90;;;;;;5046591;28;20430;-59
2022/05/04 01:51:51;;;;;;;26.73;9.60;;;9.80;99.90;;;;;;5081353;28;20408;-59
2022/05/04 01:54:17;;;;;;;21.17;9.63;;;9.80;99.90;;;;;;5051838;28;20433;-59
2022/05/04 01:56:43;;;;;;;21.40;9.97;;;9.80;99.90;;;;;;5031987;28;20218;-59
2022/05/04 01:59:08;;;;;;;18.37;9.57;;;9.80;99.90;;;;;;5050900;28;20225;-59
2022/05/04 02:01:35;;;;;;;72.30;9.90;;;9.80;99.90;;;;;;5051376;28;20607;-60
2022/05/04 02:04:02;;;;;;;20.03;10.90;;;9.80;99.90;;;;;;5044427;28;20171;-59
2022/05/04 02:06:28;;;;;;;20.50;11.63;;;9.80;99.90;;;;;;5050039;28;20445;-59
2022/05/04 02:08:53;;;;;;;24.97;11.80;;;9.80;99.90;;;;;;5038952;28;20981;-59
2022/05/04 02:11:19;;;;;;;25.07;11.53;;;9.80;99.90;;;;;;5047929;28;20179;-59
2022/05/04 02:13:45;;;;;;;35.07;11.63;;;9.80;99.90;;;;;;5053370;28;20213;-59
2022/05/04 02:16:10;;;;;;;31.57;12.27;;;9.80;99.90;;;;;;5053048;28;20202;-59
2022/05/04 02:18:36;;;;;;;38.87;11.23;;;9.80;99.90;;;;;;5049288;28;20639;-59
2022/05/04 02:21:02;;;;;;;29.40;11.37;;;9.80;99.90;;;;;;5048944;28;20309;-61
2022/05/04 02:23:28;;;;;;;23.53;10.83;;;9.80;99.90;;;;;;5050323;28;20286;-58
2022/05/04 02:25:54;;;;;;;74.57;12.30;;;9.70;99.90;;;;;;5065582;28;20505;-59
2022/05/04 02:28:19;;;;;;;49.37;10.97;;;9.70;99.90;;;;;;5047024;28;20175;-59
2022/05/04 02:30:45;;;;;;;60.33;11.87;;;9.70;99.90;;;;;;5030730;28;20226;-59
2022/05/04 02:33:13;;;;;;;72.10;12.43;;;9.60;99.90;;;;;;5042744;28;20186;-59
2022/05/04 02:38:22;;;;;;;90.33;12.33;;;9.60;99.90;;;;;;5048075;28;20449;-57
2022/05/04 02:40:48;;;;;;;53.40;10.77;;;9.50;99.90;;;;;;5049136;28;20437;-59
2022/05/04 02:43:14;;;;;;;69.93;12.50;;;9.50;99.90;;;;;;5049523;28;20201;-59
2022/05/04 02:45:40;;;;;;;31.27;11.60;;;9.50;99.90;;;;;;5052204;28;20523;-59
2022/05/04 02:48:07;;;;;;;20.20;9.67;;;9.50;99.90;;;;;;5033353;28;20174;-58
2022/05/04 02:50:33;;;;;;;29.70;8.80;;;9.50;99.90;;;;;;5051533;28;20487;-59
2022/05/04 02:52:58;;;;;;;24.70;9.33;;;9.50;99.90;;;;;;5040030;28;21094;-59
2022/05/04 02:55:24;;;;;;;160.47;11.77;;;9.50;99.90;;;;;;5030120;28;20278;-60
2022/05/04 02:57:49;;;;;;;101.50;11.80;;;9.50;99.90;;;;;;5029974;28;20226;-60
2022/05/04 03:00:15;;;;;;;102.80;13.33;;;9.40;99.90;;;;;;5050182;28;20179;-59
2022/05/04 03:02:41;;;;;;;103.20;12.20;;;9.30;99.90;;;;;;5063118;28;20767;-59
2022/05/04 03:05:08;;;;;;;103.70;11.83;;;9.30;99.90;;;;;;5045957;28;20437;-59
2022/05/04 03:07:34;;;;;;;56.43;11.20;;;9.20;99.90;;;;;;5047792;28;20437;-59
2022/05/04 03:10:00;;;;;;;71.53;11.03;;;9.20;99.90;;;;;;5022507;28;20493;-59
2022/05/04 03:12:27;;;;;;;102.80;12.90;;;9.20;99.90;;;;;;5050059;28;20613;-58
2022/05/04 03:14:53;;;;;;;64.87;11.57;;;9.20;99.90;;;;;;5051959;28;20590;-59
2022/05/04 03:17:19;;;;;;;33.53;10.07;;;9.20;99.90;;;;;;5076474;28;20441;-58
2022/05/04 03:19:45;;;;;;;75.50;11.80;;;9.20;99.90;;;;;;5048315;28;20437;-59
2022/05/04 03:22:11;;;;;;;50.20;11.40;;;9.20;99.90;;;;;;5046970;28;20453;-59
2022/05/04 03:24:38;;;;;;;39.67;11.90;;;9.20;99.90;;;;;;5029738;28;20442;-59
2022/05/04 03:27:05;;;;;;;57.00;13.10;;;9.20;99.90;;;;;;5030559;28;20995;-57
2022/05/04 03:29:30;;;;;;;85.53;12.37;;;9.20;99.90;;;;;;5048482;28;20504;-59
2022/05/04 03:31:56;;;;;;;28.93;10.70;;;9.20;99.90;;;;;;5033573;28;20947;-59
2022/05/04 03:34:22;;;;;;;70.07;12.07;;;9.10;99.90;;;;;;5095933;22;20259;-60
2022/05/04 03:36:48;;;;;;;52.77;13.50;;;9.20;99.90;;;;;;5104881;28;20178;-60
2022/05/04 03:39:14;;;;;;;53.17;11.87;;;9.10;99.90;;;;;;5096385;28;20889;-60
2022/05/04 03:41:40;;;;;;;106.47;14.33;;;9.10;99.90;;;;;;5069837;28;20444;-56
2022/05/04 03:44:06;;;;;;;141.13;15.27;;;9.00;99.90;;;;;;5092109;28;20467;-61
2022/05/04 03:46:46;;;;;;;26.50;8.13;;;9.00;99.90;;;;;;5068474;28;20582;-59
2022/05/04 03:49:14;;;;;;;13.30;7.30;;;9.00;99.90;;;;;;5064894;28;20431;-58
2022/05/04 03:51:40;;;;;;;19.23;8.10;;;9.00;99.90;;;;;;5087130;28;20436;-60
2022/05/04 03:54:07;;;;;;;17.87;8.07;;;9.00;99.90;;;;;;5087065;28;20458;-59
2022/05/04 03:56:33;;;;;;;22.27;7.30;;;8.90;99.90;;;;;;5087741;28;20824;-60
2022/05/04 03:58:59;;;;;;;29.70;8.97;;;8.80;99.90;;;;;;5084791;28;21017;-59
2022/05/04 04:01:25;;;;;;;30.10;7.93;;;8.80;99.90;;;;;;5086103;28;20435;-59
2022/05/04 04:03:50;;;;;;;41.80;9.50;;;8.80;99.90;;;;;;5081985;28;20490;-58
2022/05/04 04:06:16;;;;;;;35.03;8.90;;;8.80;99.90;;;;;;5080206;28;20170;-55
2022/05/04 04:08:42;;;;;;;31.27;8.50;;;8.80;99.90;;;;;;5074549;28;20231;-61
2022/05/04 04:11:08;;;;;;;35.33;9.20;;;8.80;99.90;;;;;;5078840;28;20162;-59
2022/05/04 04:13:34;;;;;;;31.70;9.60;;;8.80;99.90;;;;;;5066971;28;20568;-59
2022/05/04 04:15:59;;;;;;;63.87;9.33;;;8.90;99.90;;;;;;5078087;28;20434;-59
2022/05/04 04:18:26;;;;;;;59.27;9.47;;;8.90;99.90;;;;;;5079695;28;20300;-58
2022/05/04 04:23:37;;;;;;;25.53;7.87;;;8.80;99.90;;;;;;5075740;28;20467;-59
2022/05/04 04:26:05;;;;;;;64.40;10.63;;;8.80;99.90;;;;;;5073496;28;20428;-59
2022/05/04 04:28:31;;;;;;;34.47;8.40;;;8.80;99.90;;;;;;5077861;28;20427;-62
2022/05/04 04:30:57;;;;;;;26.80;10.00;;;8.80;99.90;;;;;;5074328;28;20459;-61
2022/05/04 04:33:26;;;;;;;31.80;11.37;;;8.80;99.90;;;;;;5082430;28;21004;-60
2022/05/04 04:35:59;;;;;;;20.53;8.50;;;8.80;99.90;;;;;;5081918;28;20737;-59
2022/05/04 04:38:25;;;;;;;34.53;10.13;;;8.80;99.90;;;;;;5079281;28;21203;-61
2022/05/04 04:40:51;;;;;;;39.27;8.57;;;8.80;99.90;;;;;;5073128;28;20467;-62
2022/05/04 04:43:17;;;;;;;102.73;13.10;;;8.80;99.90;;;;;;5056867;28;20502;-61
2022/05/04 04:45:47;;;;;;;31.73;9.10;;;8.80;99.90;;;;;;5078432;28;20192;-62
2022/05/04 04:48:16;;;;;;;40.57;9.93;;;8.80;99.90;;;;;;5078132;28;20527;-61
2022/05/04 04:50:42;;;;;;;26.23;9.30;;;8.70;99.90;;;;;;5082299;28;20511;-62
2022/05/04 04:53:08;;;;;;;37.13;9.00;;;8.70;99.90;;;;;;5081356;28;20800;-62
2022/05/04 04:55:34;;;;;;;27.47;9.00;;;8.70;99.90;;;;;;5064994;28;20455;-60
2022/05/04 04:58:00;;;;;;;25.67;9.20;;;8.70;99.90;;;;;;5085281;28;20630;-59
2022/05/04 05:00:26;;;;;;;43.60;9.23;;;8.70;99.90;;;;;;5086084;28;20424;-58
2022/05/04 05:02:52;;;;;;;78.63;10.20;;;8.70;99.90;;;;;;5074055;28;20458;-62
2022/05/04 05:05:18;;;;;;;52.10;10.00;;;8.70;99.90;;;;;;5090027;28;20644;-63
2022/05/04 05:07:43;;;;;;;59.03;9.67;;;8.70;99.90;;;;;;5090039;28;20166;-63
2022/05/04 05:10:09;;;;;;;63.90;9.23;;;8.60;99.90;;;;;;5090211;28;20637;-61
2022/05/04 05:12:35;;;;;;;51.03;9.63;;;8.60;99.90;;;;;;5091034;28;20516;-62
2022/05/04 05:17:45;;;;;;;49.10;9.73;;;8.60;99.90;;;;;;5088236;28;20188;-63
2022/05/04 05:20:11;;;;;;;35.70;13.10;;;8.60;99.90;;;;;;5089579;28;20594;-61
2022/05/04 05:22:38;;;;;;;56.37;17.10;;;8.70;99.90;;;;;;5077621;28;20555;-62
2022/05/04 05:25:04;;;;;;;40.10;15.00;;;8.70;99.90;;;;;;5091094;28;20451;-62
2022/05/04 05:27:30;;;;;;;46.13;12.30;;;8.70;99.90;;;;;;5088347;28;20864;-61
2022/05/04 05:29:56;;;;;;;41.40;12.63;;;8.70;99.90;;;;;;5089593;28;20732;-61
2022/05/04 05:32:22;;;;;;;43.77;11.23;;;8.70;99.90;;;;;;5093028;28;20923;-62
2022/05/04 05:34:48;;;;;;;27.90;12.90;;;8.80;99.90;;;;;;5089757;28;20201;-62
2022/05/04 05:37:14;;;;;;;32.40;11.80;;;8.80;99.90;;;;;;5077644;28;20411;-62
2022/05/04 05:39:40;;;;;;;34.73;13.93;;;8.80;99.90;;;;;;5062155;28;20186;-63
2022/05/04 05:42:07;;;;;;;28.10;13.43;;;8.90;99.90;;;;;;5092270;28;20547;-61
2022/05/04 05:44:33;;;;;;;21.37;10.53;;;8.90;99.90;;;;;;5089203;28;20451;-61
2022/05/04 05:46:59;;;;;;;27.80;11.03;;;8.90;99.90;;;;;;5095772;28;20740;-61
2022/05/04 05:49:25;;;;;;;26.43;9.80;;;8.90;99.90;;;;;;5089360;28;20166;-62
2022/05/04 05:51:51;;;;;;;32.37;10.37;;;8.90;99.90;;;;;;5087480;28;20964;-64
2022/05/04 05:54:17;;;;;;;21.00;11.70;;;9.00;99.90;;;;;;5083319;28;20459;-60
2022/05/04 05:56:42;;;;;;;51.67;14.10;;;9.00;99.90;;;;;;5089224;28;20173;-61
2022/05/04 05:59:08;;;;;;;26.63;12.20;;;9.00;99.90;;;;;;5089895;28;20177;-63
2022/05/04 06:01:34;;;;;;;32.10;12.50;;;9.00;99.90;;;;;;5101006;28;20226;-62
2022/05/04 06:03:59;;;;;;;32.33;13.37;;;9.00;99.90;;;;;;5094456;28;20220;-62
2022/05/04 06:06:25;;;;;;;37.27;15.13;;;9.10;99.90;;;;;;5092393;28;20170;-62
2022/05/04 06:08:50;;;;;;;80.23;13.50;;;9.10;99.90;;;;;;5068232;28;20569;-64
2022/05/04 06:11:16;;;;;;;41.73;15.70;;;9.10;99.90;;;;;;5069959;28;20607;-62
2022/05/04 06:13:42;;;;;;;77.60;15.10;;;9.10;99.90;;;;;;5086029;28;20197;-63
2022/05/04 06:16:07;;;;;;;88.17;15.80;;;9.10;99.90;;;;;;5084087;28;20624;-62
2022/05/04 06:18:33;;;;;;;51.03;15.90;;;9.10;99.90;;;;;;5081688;28;20773;-62
2022/05/04 06:21:00;;;;;;;120.63;16.03;;;9.10;99.90;;;;;;5088993;28;20646;-62
2022/05/04 06:23:25;;;;;;;38.60;14.17;;;9.10;99.90;;;;;;5067717;28;20239;-62
2022/05/04 06:25:51;;;;;;;49.23;15.53;;;9.10;99.90;;;;;;5091234;28;20502;-62
2022/05/04 06:28:17;;;;;;;37.23;14.20;;;9.20;99.90;;;;;;5068559;28;20634;-62
2022/05/04 06:36:11;;;;;;;72.47;12.73;;;9.30;99.90;;;;;;5072774;28;20434;-63
2022/05/04 06:38:37;;;;;;;38.03;16.73;;;9.30;99.90;;;;;;5080906;28;20495;-61
2022/05/04 06:41:05;;;;;;;20.67;10.87;;;9.40;99.90;;;;;;5066779;28;20696;-62
2022/05/04 06:43:32;;;;;;;56.20;13.17;;;9.40;99.90;;;;;;5094951;28;20280;-61
2022/05/04 06:45:58;;;;;;;41.47;10.40;;;9.50;99.90;;;;;;5090815;28;20450;-61
2022/05/04 06:48:24;;;;;;;20.93;10.27;;;9.50;99.90;;;;;;5088799;28;20471;-61
2022/05/04 06:50:49;;;;;;;58.27;13.63;;;9.50;99.90;;;;;;5088977;28;20500;-62
2022/05/04 06:53:15;;;;;;;35.43;14.23;;;9.50;99.90;;;;;;5088507;28;20213;-61
2022/05/04 06:55:41;;;;;;;36.13;16.00;;;9.60;99.90;;;;;;5087774;28;20193;-61
2022/05/04 06:58:06;;;;;;;31.73;14.43;;;9.70;99.90;;;;;;5089404;28;20747;-61
2022/05/04 07:00:32;;;;;;;27.77;14.87;;;9.80;99.90;;;;;;5087718;28;20518;-61
2022/05/04 07:02:57;;;;;;;31.07;14.60;;;10.00;99.90;;;;;;5095364;28;20251;-61
2022/05/04 07:05:23;;;;;;;28.13;12.80;;;10.10;99.90;;;;;;5104381;28;20185;-61
2022/05/04 07:07:49;;;;;;;25.83;12.13;;;10.20;99.90;;;;;;5084702;28;20708;-61
2022/05/04 07:10:14;;;;;;;33.83;14.43;;;10.40;99.90;;;;;;5087678;28;20165;-62
2022/05/04 07:12:40;;;;;;;21.60;12.57;;;10.50;99.90;;;;;;5087657;28;20174;-61
2022/05/04 07:15:06;;;;;;;27.70;12.07;;;10.60;99.90;;;;;;5071737;28;20288;-61
2022/05/04 07:17:32;;;;;;;23.03;11.90;;;10.70;99.90;;;;;;5078179;28;20178;-61
2022/05/04 07:19:58;;;;;;;29.00;12.87;;;10.80;99.90;;;;;;5088000;28;20408;-62
2022/05/04 07:22:23;;;;;;;24.57;11.90;;;10.90;99.90;;;;;;5087543;28;20221;-62
2022/05/04 07:24:49;;;;;;;21.93;13.03;;;11.10;99.90;;;;;;5086287;28;20239;-61
2022/05/04 07:27:15;;;;;;;26.80;13.03;;;11.20;99.90;;;;;;5081071;28;20169;-61
2022/05/04 07:29:44;;;;;;;35.67;13.43;;;11.30;99.90;;;;;;5086989;28;20424;-61
2022/05/04 07:32:10;;;;;;;23.70;13.20;;;11.40;99.90;;;;;;5086650;28;20259;-60
2022/05/04 07:34:37;;;;;;;27.20;13.50;;;11.60;99.90;;;;;;5081671;28;20467;-60
2022/05/04 07:37:03;;;;;;;24.77;13.20;;;11.60;99.90;;;;;;5092411;28;20172;-60
2022/05/04 07:42:21;;;;;;;18.60;10.57;;;11.80;99.90;;;;;;5084935;28;20454;-61
2022/05/04 07:44:48;;;;;;;16.03;10.30;;;11.90;99.90;;;;;;5098255;28;20961;-60
2022/05/04 07:47:14;;;;;;;14.10;10.10;;;12.00;99.90;;;;;;5108236;28;20458;-60
2022/05/04 07:49:40;;;;;;;16.10;9.30;;;12.20;99.90;;;;;;5068867;28;20966;-61
2022/05/04 07:52:05;;;;;;;20.23;9.13;;;12.30;99.90;;;;;;5073726;28;20170;-60
2022/05/04 07:54:31;;;;;;;15.63;9.97;;;12.40;99.90;;;;;;5084868;28;21090;-61
2022/05/04 07:56:57;;;;;;;14.47;9.67;;;12.50;99.90;;;;;;5085415;28;20223;-61
2022/05/04 07:59:23;;;;;;;18.80;10.20;;;12.60;99.90;;;;;;5086944;28;20257;-61
2022/05/04 08:04:34;;;;;;;17.73;11.30;;;12.90;99.90;;;;;;5088076;28;20277;-62
2022/05/04 08:07:00;;;;;;;24.47;10.60;;;13.10;99.90;;;;;;5079311;28;20424;-61
2022/05/04 08:09:26;;;;;;;14.60;9.43;;;13.30;99.90;;;;;;5086401;28;20473;-60
2022/05/04 08:11:52;;;;;;;11.30;9.30;;;13.40;99.90;;;;;;5086057;28;20500;-61
2022/05/04 08:14:18;;;;;;;14.10;9.57;;;13.50;99.90;;;;;;5086604;28;20212;-61
2022/05/04 08:16:44;;;;;;;12.33;8.83;;;13.60;99.90;;;;;;5086127;28;20592;-61
2022/05/04 08:19:10;;;;;;;13.07;8.80;;;13.70;99.90;;;;;;5094817;28;20552;-61
2022/05/04 08:21:38;;;;;;;14.00;8.97;;;13.80;99.90;;;;;;5086149;28;20868;-60
2022/05/04 08:24:05;;;;;;;17.13;9.63;;;14.00;99.90;;;;;;5087037;28;20546;-60
2022/05/04 08:26:30;;;;;;;13.40;9.27;;;14.10;99.90;;;;;;5086094;28;20485;-60
2022/05/04 08:28:56;;;;;;;16.90;8.17;;;14.30;99.90;;;;;;5068936;28;20511;-61
2022/05/04 08:31:22;;;;;;;10.00;7.97;;;14.40;99.90;;;;;;5086843;28;20177;-61
2022/05/04 08:33:49;;;;;;;10.67;7.70;;;14.60;99.90;;;;;;5085017;28;20220;-60
2022/05/04 08:36:14;;;;;;;8.77;7.20;;;14.70;99.90;;;;;;5085445;28;20314;-61
2022/05/04 08:38:40;;;;;;;11.10;7.27;;;14.80;99.90;;;;;;5098309;28;20445;-63
2022/05/04 08:41:07;;;;;;;17.20;8.33;;;15.00;99.90;;;;;;5081191;28;20243;-62
2022/05/04 08:43:34;;;;;;;12.20;8.70;;;15.10;99.90;;;;;;5090137;28;20462;-62
2022/05/04 08:46:02;;;;;;;8.30;5.80;;;15.30;99.90;;;;;;5089958;28;21061;-62
2022/05/04 08:48:31;;;;;;;7.00;6.30;;;15.40;99.90;;;;;;5090871;28;20468;-62
2022/05/04 08:51:02;;;;;;;8.67;6.47;;;15.50;99.90;;;;;;5071948;28;20935;-61
2022/05/04 08:53:28;;;;;;;8.70;6.30;;;15.60;99.90;;;;;;5088920;28;21026;-62
2022/05/04 08:55:54;;;;;;;6.77;6.07;;;15.80;99.90;;;;;;5093383;28;20509;-62
2022/05/04 08:58:20;;;;;;;12.73;6.30;;;16.00;99.90;;;;;;5107372;28;20406;-61
2022/05/04 09:00:46;;;;;;;11.23;6.50;;;16.10;99.90;;;;;;5091107;28;20182;-62
2022/05/04 09:03:12;;;;;;;8.13;6.40;;;16.20;99.90;;;;;;5090197;28;20217;-61
2022/05/04 09:05:40;;;;;;;11.37;5.80;;;16.40;99.90;;;;;;5088841;28;20542;-61
2022/05/04 09:08:07;;;;;;;9.50;5.73;;;16.50;99.90;;;;;;5089220;28;20537;-61
2022/05/04 09:10:37;;;;;;;7.70;5.80;;;16.70;94.50;;;;;;5089708;28;20427;-61
2022/05/04 09:13:04;;;;;;;5.70;5.20;;;16.70;95.00;;;;;;5073104;28;20471;-61
2022/05/04 09:15:35;;;;;;;11.50;5.50;;;16.80;91.10;;;;;;5078483;28;20452;-61
2022/05/04 09:18:00;;;;;;;7.00;5.37;;;16.90;94.20;;;;;;5107536;28;20554;-61
2022/05/04 09:23:24;;;;;;;8.90;6.23;;;17.30;95.30;;;;;;5079959;28;20200;-61
2022/05/04 09:25:57;;;;;;;6.37;5.40;;;17.50;89.10;;;;;;5089324;28;20539;-62
2022/05/04 09:28:24;;;;;;;7.57;6.20;;;17.50;93.50;;;;;;5070326;28;20559;-61
2022/05/04 09:30:52;;;;;;;9.83;5.10;;;17.60;94.50;;;;;;5089008;28;20431;-61
2022/05/04 09:33:27;;;;;;;8.83;5.73;;;17.80;92.20;;;;;;5071027;28;20774;-64
2022/05/04 09:35:54;;;;;;;6.23;4.97;;;18.00;92.90;;;;;;5100277;28;20475;-61
2022/05/04 09:46:47;;;;;;;8.53;3.93;;;18.20;58.50;;;;;;5097328;28;21086;-61
2022/05/04 09:49:20;;;;;;;8.73;4.37;;;18.00;57.30;;;;;;5086154;28;20792;-61
2022/05/04 09:51:51;;;;;;;13.57;5.07;;;17.80;62.60;;;;;;5087707;28;21013;-61
2022/05/04 09:54:27;;;;;;;4.37;3.87;;;17.60;64.80;;;;;;5095483;28;20439;-61
2022/05/04 09:56:58;;;;;;;10.03;5.50;;;17.30;56.00;;;;;;5081274;28;21301;-62
2022/05/04 09:59:26;;;;;;;12.83;4.57;;;16.90;59.50;;;;;;5070620;28;20427;-61
2022/05/04 10:01:53;;;;;;;6.60;4.30;;;16.20;66.30;;;;;;5088478;28;20427;-62
2022/05/04 10:04:20;;;;;;;8.63;4.97;;;15.40;61.40;;;;;;5089382;28;20455;-61
2022/05/04 10:06:48;;;;;;;7.67;5.03;;;14.80;86.60;;;;;;5086642;28;20439;-61
2022/05/04 10:09:14;;;;;;;7.33;4.93;;;14.30;96.30;;;;;;5088233;28;20885;-61
2022/05/04 10:11:39;;;;;;;11.93;5.07;;;14.00;99.90;;;;;;5088508;28;20426;-61
2022/05/04 10:14:10;;;;;;;7.10;4.40;;;13.70;99.90;;;;;;5089544;28;20193;-61
2022/05/04 10:17:03;;;;;;;5.27;4.30;;;13.40;99.90;;;;;;5089738;28;20181;-61
2022/05/04 10:19:52;;;;;;;14.73;4.20;;;13.20;99.90;;;;;;5085805;28;20501;-62
2022/05/04 10:22:48;;;;;;;5.13;4.20;;;12.90;99.90;;;;;;5076868;28;20463;-61
2022/05/04 10:25:16;;;;;;;4.93;3.47;;;12.70;99.90;;;;;;5086103;28;20448;-61
2022/05/04 10:27:43;;;;;;;4.53;3.90;;;12.60;99.90;;;;;;5087904;28;20436;-60
2022/05/04 10:32:59;;;;;;;5.07;4.57;;;12.40;99.90;;;;;;5079166;28;20509;-57
2022/05/04 10:35:38;;;;;;;6.90;4.93;;;12.30;99.90;;;;;;5084187;28;20551;-57
2022/05/04 10:38:15;;;;;;;6.53;5.20;;;12.30;99.90;;;;;;5074895;28;20565;-59
2022/05/04 10:40:54;;;;;;;5.90;5.10;;;12.20;99.90;;;;;;5084263;28;20426;-56
2022/05/04 10:43:42;;;;;;;10.70;5.20;;;12.20;99.90;;;;;;5086973;28;20553;-60
2022/05/04 10:46:16;;;;;;;9.20;5.00;;;12.20;99.90;;;;;;5083054;28;20428;-56
2022/05/04 10:49:04;;;;;;;6.17;5.53;;;12.20;99.90;;;;;;5086849;28;20830;-57
2022/05/04 10:51:37;;;;;;;6.00;4.73;;;12.10;99.90;;;;;;5084983;28;20459;-58
2022/05/04 10:54:13;;;;;;;11.50;5.03;;;12.00;99.90;;;;;;5084730;28;20463;-58
2022/05/04 10:56:45;;;;;;;8.97;4.70;;;11.90;99.90;;;;;;5084221;28;20463;-56
2022/05/04 10:59:12;;;;;;;6.30;4.77;;;11.90;99.90;;;;;;5080878;28;20965;-57
2022/05/04 11:01:39;;;;;;;10.43;4.97;;;11.80;99.90;;;;;;5085257;28;20432;-58
2022/05/04 11:04:05;;;;;;;11.53;6.10;;;11.80;99.90;;;;;;5064426;28;20550;-59
2022/05/04 11:06:42;;;;;;;7.40;5.60;;;11.80;99.90;;;;;;5083093;28;20432;-58
2022/05/04 11:09:07;;;;;;;6.37;5.00;;;11.80;99.90;;;;;;5082019;28;20176;-58
2022/05/04 11:11:34;;;;;;;7.60;5.30;;;11.70;99.90;;;;;;5085518;28;20436;-57
2022/05/04 11:14:01;;;;;;;9.30;5.60;;;11.70;99.90;;;;;;5083634;28;20212;-58
2022/05/04 11:16:28;;;;;;;6.27;4.97;;;11.70;99.90;;;;;;5084585;28;20450;-58
2022/05/04 11:18:54;;;;;;;4.90;4.27;;;11.60;99.90;;;;;;5085317;28;20427;-57
2022/05/04 11:21:20;;;;;;;6.13;4.67;;;11.60;99.90;;;;;;5083582;28;20999;-57
2022/05/04 11:23:51;;;;;;;6.80;4.80;;;11.60;99.90;;;;;;5065733;28;20471;-57
2022/05/04 11:26:19;;;;;;;6.47;4.27;;;11.70;99.90;;;;;;5076646;28;20974;-57
2022/05/04 11:28:45;;;;;;;5.93;4.40;;;11.70;99.90;;;;;;5079555;28;20954;-57
2022/05/04 11:31:12;;;;;;;7.10;4.70;;;11.80;99.90;;;;;;5085268;28;20791;-57
2022/05/04 11:33:37;;;;;;;5.30;4.40;;;11.90;99.90;;;;;;5084215;28;21000;-58
2022/05/04 11:36:03;;;;;;;5.53;4.53;;;12.00;99.90;;;;;;5070032;28;20525;-59
2022/05/04 11:38:29;;;;;;;8.17;4.50;;;12.20;99.90;;;;;;5082224;28;20197;-54
2022/05/04 11:40:54;;;;;;;6.33;4.27;;;12.30;99.90;;;;;;5078803;28;20177;-56
2022/05/04 11:43:33;;;;;;;4.07;3.53;;;12.40;99.90;;;;;;5059534;28;20213;-56
2022/05/04 11:46:07;;;;;;;6.27;4.17;;;12.50;99.90;;;;;;5087983;28;20490;-56
2022/05/04 11:48:38;;;;;;;5.87;4.30;;;12.60;99.90;;;;;;5079809;28;20432;-55
2022/05/04 11:51:04;;;;;;;7.60;6.13;;;12.70;99.90;;;;;;5081882;28;20435;-55
2022/05/04 11:53:31;;;;;;;9.33;6.77;;;12.80;99.90;;;;;;5081208;28;20442;-55
2022/05/04 11:55:59;;;;;;;12.73;6.13;;;12.80;99.90;;;;;;5082678;28;20432;-55
2022/05/04 11:58:27;;;;;;;19.27;6.70;;;12.90;99.90;;;;;;5081197;28;20444;-56
2022/05/04 12:00:53;;;;;;;11.40;6.10;;;12.90;99.90;;;;;;5057494;28;20436;-55
2022/05/04 12:03:19;;;;;;;8.50;6.10;;;13.00;99.90;;;;;;5076302;28;20545;-55
2022/05/04 12:05:46;;;;;;;10.37;5.97;;;13.00;99.90;;;;;;5079834;28;21117;-54
2022/05/04 12:08:14;;;;;;;6.60;5.60;;;13.00;99.90;;;;;;5062795;28;20420;-54
2022/05/04 12:10:40;;;;;;;6.70;5.90;;;13.00;99.90;;;;;;5066176;28;20430;-54
2022/05/04 12:13:06;;;;;;;6.73;5.70;;;12.90;99.90;;;;;;5083707;28;20437;-55
2022/05/04 12:15:32;;;;;;;14.67;6.80;;;12.90;99.90;;;;;;5083403;28;20478;-54
2022/05/04 12:18:05;;;;;;;10.63;6.10;;;12.90;99.90;;;;;;5080677;28;20204;-55
2022/05/04 12:20:34;;;;;;;7.33;5.93;;;12.90;99.90;;;;;;5083176;28;20441;-55
2022/05/04 12:23:01;;;;;;;9.60;6.10;;;12.90;99.90;;;;;;5081174;28;20463;-56
2022/05/04 12:25:27;;;;;;;9.47;6.70;;;13.00;99.90;;;;;;5085250;28;20542;-57
2022/05/04 12:27:54;;;;;;;9.57;6.77;;;13.00;99.90;;;;;;5089724;28;20450;-55
2022/05/04 12:33:09;;;;;;;10.87;6.40;;;13.20;99.90;;;;;;5070741;28;20411;-55
2022/05/04 12:35:35;;;;;;;12.93;6.80;;;13.40;99.90;;;;;;5075532;28;20479;-55
2022/05/04 12:38:03;;;;;;;14.20;7.70;;;13.50;99.90;;;;;;5082990;28;20767;-55
2022/05/04 12:40:33;;;;;;;11.30;6.97;;;13.70;99.90;;;;;;5075922;28;20189;-55
2022/05/04 12:43:00;;;;;;;8.33;6.73;;;13.90;99.90;;;;;;5069481;28;20459;-55
2022/05/04 12:45:27;;;;;;;12.43;7.47;;;14.10;99.90;;;;;;5093471;28;20439;-55
2022/05/04 12:47:54;;;;;;;9.40;6.73;;;14.40;99.90;;;;;;5090667;28;20420;-55
2022/05/04 12:50:22;;;;;;;7.00;5.90;;;14.60;99.90;;;;;;5090393;28;20439;-55
2022/05/04 12:52:48;;;;;;;6.83;5.80;;;14.80;99.90;;;;;;5090866;28;20491;-55
2022/05/04 12:55:15;;;;;;;5.83;4.60;;;14.90;99.90;;;;;;5071054;28;20451;-55
2022/05/04 12:57:40;;;;;;;8.03;5.47;;;15.00;99.90;;;;;;5080661;28;20439;-56
2022/05/04 13:00:07;;;;;;;8.13;5.07;;;15.00;99.90;;;;;;5088287;28;20443;-55
2022/05/04 13:02:33;;;;;;;8.77;4.87;;;15.00;99.90;;;;;;5090310;28;20451;-55
2022/05/04 13:04:59;;;;;;;5.80;4.83;;;15.10;99.90;;;;;;5100402;28;20450;-57
2022/05/04 13:07:25;;;;;;;5.10;4.43;;;15.20;99.90;;;;;;5111167;28;20254;-55
2022/05/04 13:09:50;;;;;;;10.97;3.90;;;15.30;99.90;;;;;;5109214;28;20169;-55
2022/05/04 13:12:16;;;;;;;4.10;3.70;;;15.40;99.90;;;;;;5088774;28;20181;-55
2022/05/04 13:14:41;;;;;;;5.77;3.00;;;15.50;99.90;;;;;;5090118;28;20193;-55
2022/05/04 13:17:07;;;;;;;3.90;3.27;;;15.60;99.90;;;;;;5091170;28;20166;-55
2022/05/04 13:19:34;;;;;;;5.20;3.23;;;15.80;99.90;;;;;;5090596;28;20174;-56